Historyczne dane pomiarowe

Dodano dane terminowe – wersja testowa.

Dane z okresu 1951-2019

Wersja bazy: 1.34 [2019-03-16, lista zmian], aktualizacja planowana na 2019-04-15

Dane meteo z obszaru Polski uzyskane na podstawie danych udostępnionych przez Instytut Meteorologii i Gospodarki Wodnej – Państwowy Instytut Badawczy.

 

Wybierz Datę:    

       

TemperaturaWilgotnośćWiatrCiśnienieOpadyŚniegCzas trwania zjawisk
 Stacja t tx tn tng RH VA  wxwx mslp ppp RRR   cm mm wxwxwxwxwxwxwx
1956-10-10 4.4 9.5 -0.6 -4.6 83.0- 4.0 1.7---- 0.0------------
1956-10-09 5.6 8.4 1.3 -2.6 91.3- 3.7 2.3---- 3.1------------
1956-10-08 5.6 8.3 3.9 2.3 87.5- 6.0 3.0---- 0.6------------
1956-10-07 7.3 8.7 6.0 5.2 79.3- 8.0 12.0---- 1.2------------
1956-10-06 6.9 8.8 5.1 0.9 92.5- 8.0 4.7---- 32.4------------
1956-10-05 9.0 14.4 6.9 2.5 86.3- 5.0 1.3---- 0.0------------
1956-10-04 9.8 13.4 3.4 0.0 91.8- 5.3 2.0---- 0.8------------
1956-10-03 12.7 19.0 8.2 9.2 86.0- 5.0 5.3---- 0.0------------
1956-10-02 16.3 25.3 8.5 5.0 78.3- 1.3 2.7---- 0.3------------
1956-10-01 15.2 24.7 5.2 0.8 81.0- 2.0 1.7---- 0.0------------
1956-09-30 11.5 18.0 8.4 1.5 85.8- 4.3 2.7---- 0.0------------
1956-09-29 16.3 20.6 14.5 13.6 72.3- 5.0 7.3---- 0.0------------
1956-09-28 15.0 18.8 9.9 5.4 80.0- 7.3 3.7---- 0.0------------
1956-09-27 15.9 23.6 8.7 6.6 73.5- 0.7 3.3---- 0.0------------
1956-09-26 13.8 23.2 4.9 3.2 74.5- 0.0 2.3---- 0.0------------
1956-09-25 10.9 18.7 3.4 0.3 72.0- 0.0 3.3---- 0.0------------
1956-09-24 8.7 15.8 4.1 0.7 61.8- 0.0 4.7---- 0.0------------
1956-09-23 11.1 18.3 7.4 3.0 71.5- 3.0 4.7---- 0.0------------
1956-09-22 11.7 20.0 3.4 -0.6 75.3- 0.0 1.7---- 0.0------------
1956-09-21 9.5 19.7 1.9 -0.5 84.0- 0.0 0.0---- 0.0------------
1956-09-20 10.4 18.5 4.0 0.9 75.5- 2.0 1.3---- 0.0------------
1956-09-19 8.5 17.6 0.6 -1.5 77.8- 0.7 1.0---- 0.0------------
1956-09-18 8.3 15.4 5.0 2.3 79.5- 1.7 2.0---- 0.0------------
1956-09-17 9.5 15.6 6.9 4.5 74.5- 4.0 3.3---- 0.0------------
1956-09-16 11.0 14.2 5.5 2.2 71.5- 8.0 5.0---- 0.8------------
1956-09-15 10.4 16.1 6.4 2.0 84.3- 5.0 3.3---- 0.0------------
1956-09-14 9.2 15.1 5.4 3.0 88.8- 3.7 1.7---- 0.3------------
1956-09-13 8.3 15.3 6.1 6.4 88.3- 4.0 3.0---- 3.7------------
1956-09-12 11.9 17.2 9.3 6.2 83.5- 5.3 6.0---- 6.6------------
1956-09-11 13.2 17.2 12.0 12.5 95.5- 5.3 1.0---- 5.3------------
1956-09-10 15.8 20.7 7.4 6.3 81.0- 3.3 2.7---- 2.8------------
1956-09-09 13.1 18.5 9.9 6.8 89.3- 4.7 1.0---- 1.7------------
1956-09-08 14.6 21.4 9.4 5.0 80.5- 3.3 0.7---- 0.0------------
1956-09-07 14.3 19.0 12.1 6.4 93.0- 5.3 1.3---- 1.4------------
1956-09-06 14.9 23.1 5.6 4.5 74.3- 0.0 1.7---- 0.0------------
1956-09-05 16.2 21.1 10.4 6.5 81.3- 1.3 1.7---- 0.0------------
1956-09-04 16.2 20.0 14.2 7.5 90.3- 8.0 2.7---- 2.9------------
1956-09-03 20.0 27.6 12.7 7.2 74.3- 0.7 2.7---- 0.8------------
1956-09-02 18.2 26.2 13.7 10.9 71.8- 0.0 2.0---- 0.0------------
1956-09-01 15.6 22.2 6.1 3.3 68.8- 3.7 2.0---- 0.0------------
1956-08-31 13.0 19.4 8.5 4.0 82.5- 4.0 2.7---- 0.0------------
1956-08-30 13.9 18.5 10.8 14.5 84.0- 6.0 5.3---- 0.0------------
1956-08-29 17.8 22.5 15.8 13.5 75.0- 5.0 3.3---- 1.3------------
1956-08-28 19.1 23.7 17.2 14.8 69.3- 4.3 5.0---- 0.0------------
1956-08-27 18.4 25.2 11.1 7.0 75.8- 2.7 1.3---- 0.0------------
1956-08-26 15.5 21.7 10.7 7.5 72.0- 1.0 4.0---- 0.0------------
1956-08-25 14.4 18.5 10.2 7.4 72.3- 5.3 6.7---- 2.1------------
1956-08-24 12.2 16.3 11.3 11.5 82.8- 5.3 5.3---- 9.0------------
1956-08-23 15.2 17.7 12.9 9.0 87.0- 7.7 3.3---- 28.2------------
1956-08-22 15.2 22.7 8.1 4.5 73.3- 4.3 1.7---- 0.0------------
1956-08-21 15.9 20.3 14.0 11.5 87.5- 8.0 0.7---- 0.0------------
1956-08-20 17.5 23.9 14.0 10.2 69.3- 3.7 6.3---- 1.6------------
1956-08-19 19.5 24.4 15.9 13.5 66.8- 4.7 3.7---- 0.0------------
1956-08-18 17.8 23.6 11.7 8.5 81.8- 5.0 1.0---- 0.0------------
1956-08-17 15.2 18.8 13.0 6.5 90.5- 8.0 2.3---- 2.1------------
1956-08-16 13.6 16.1 9.8 4.8 82.5- 6.3 5.0---- 4.5------------
1956-08-15 14.0 19.4 12.0 9.7 68.3- 3.7 5.0---- 0.0------------
1956-08-14 17.8 25.4 9.7 6.7 83.3- 4.3 1.7---- 1.6------------
1956-08-13 14.3 20.9 11.3 10.9 83.8- 4.0 3.3---- 0.0------------
1956-08-12 13.4 16.5 12.6 12.0 94.8- 8.0 2.0---- 3.4------------
267.7 ms

 

Źródłem pochodzenia danych jest Instytut Meteorologii i Gospodarki Wodnej – Państwowy Instytut Badawczy. Dane Instytutu Meteorologii i Gospodarki Wodnej – Państwowego Instytutu Badawczego zostały przetworzone.

Dane źródłowe można odnaleźć na stronie https://dane.imgw.pl